createdAt,value
2018-07-28T20:40:52.874Z,97990.26
2018-07-28T20:43:24.227Z,97992.14
2018-07-28T20:45:55.674Z,97992.67
2018-07-28T20:48:27.073Z,97990.49
2018-07-28T20:50:58.500Z,97994.03
2018-07-28T20:53:29.823Z,97997.81
2018-07-28T20:56:01.171Z,98001.14
2018-07-28T21:02:56.660Z,98006.02
2018-07-28T21:05:27.912Z,98001.95
2018-07-28T21:07:59.498Z,98003.02
2018-07-28T21:10:30.889Z,98003.27
2018-07-28T21:13:02.371Z,97999.40
2018-07-28T21:15:33.666Z,97997.45
2018-07-28T21:18:05.039Z,97996.89
2018-07-28T21:20:36.454Z,98002.28
2018-07-28T21:23:07.746Z,98006.39
2018-07-28T21:25:39.027Z,98002.75
2018-07-28T21:28:10.316Z,98001.95
2018-07-28T21:30:41.728Z,98008.16
2018-07-28T21:33:12.991Z,98005.68
2018-07-28T21:35:44.313Z,98013.50
2018-07-28T21:38:20.560Z,98011.55
2018-07-28T21:40:51.980Z,98003.68
2018-07-28T21:43:23.302Z,98009.38
2018-07-28T21:45:54.652Z,98014.11
2018-07-28T21:48:26.111Z,98015.22
2018-07-28T21:50:57.457Z,98012.22
2018-07-28T21:53:28.821Z,98013.02
2018-07-28T21:56:00.186Z,98012.17
2018-07-28T21:58:31.456Z,98014.34
2018-07-28T22:01:09.406Z,98018.66
2018-07-28T22:03:43.030Z,98025.34
2018-07-28T22:06:14.710Z,98028.96
2018-07-28T22:08:46.726Z,98032.04
2018-07-28T22:11:18.052Z,98026.86
2018-07-28T22:13:49.280Z,98030.73
2018-07-28T22:16:20.565Z,98031.55
2018-07-28T22:18:51.897Z,98031.94
2018-07-28T22:21:23.254Z,98038.52
2018-07-28T22:23:54.624Z,98043.24
2018-07-28T22:26:25.943Z,98043.53
2018-07-28T22:28:57.286Z,98038.38
2018-07-28T22:31:28.667Z,98037.87
2018-07-28T22:33:59.974Z,98028.63
2018-07-28T22:36:31.246Z,98038.19
2018-07-28T22:39:02.679Z,98042.54
2018-07-28T22:41:33.944Z,98043.64
2018-07-28T22:44:05.307Z,98044.95
2018-07-28T22:46:36.623Z,98049.52
2018-07-28T22:49:07.879Z,98049.77
2018-07-28T22:51:39.369Z,98052.98
2018-07-28T22:54:10.651Z,98052.09
2018-07-28T22:56:41.942Z,98049.12
2018-07-28T22:59:13.184Z,98053.98
2018-07-28T23:01:44.690Z,98049.06
2018-07-28T23:04:15.963Z,98051.20
2018-07-28T23:06:47.266Z,98048.17
2018-07-28T23:09:18.574Z,98047.12
2018-07-28T23:11:49.948Z,98050.68
2018-07-28T23:14:21.238Z,98050.37
2018-07-28T23:16:52.506Z,98051.96
2018-07-28T23:19:23.704Z,98050.58
2018-07-28T23:21:54.986Z,98045.12
2018-07-28T23:24:26.363Z,98048.86
2018-07-28T23:26:57.682Z,98048.58
2018-07-28T23:29:29.007Z,98047.98
2018-07-28T23:32:00.302Z,98045.80
2018-07-28T23:34:32.335Z,98044.98
2018-07-28T23:37:03.632Z,98047.42
2018-07-28T23:39:34.924Z,98052.03
2018-07-28T23:42:06.347Z,98049.80
2018-07-28T23:44:37.617Z,98057.95
2018-07-28T23:47:08.888Z,98061.20
2018-07-28T23:49:40.088Z,98067.97
2018-07-28T23:52:11.374Z,98067.46
2018-07-28T23:54:42.704Z,98067.39
2018-07-28T23:57:14.021Z,98067.39
2018-07-28T23:59:45.479Z,98061.39
